sensor_id;sensor_type;location;lat;lon;timestamp;pressure;altitude;pressure_sealevel;temperature;humidity
35551;BME280;21655;46.056;13.616;2023-06-14T00:00:45;99911.72;;;18.33;100.00
35551;BME280;21655;46.056;13.616;2023-06-14T00:03:11;99912.94;;;18.37;100.00
35551;BME280;21655;46.056;13.616;2023-06-14T00:05:40;99904.03;;;18.40;100.00
35551;BME280;21655;46.056;13.616;2023-06-14T00:08:08;99904.03;;;18.40;100.00
35551;BME280;21655;46.056;13.616;2023-06-14T00:10:35;99900.38;;;18.40;100.00
35551;BME280;21655;46.056;13.616;2023-06-14T00:13:04;99900.50;;;18.45;100.00
35551;BME280;21655;46.056;13.616;2023-06-14T00:15:31;99896.59;;;18.46;100.00
35551;BME280;21655;46.056;13.616;2023-06-14T00:17:57;99890.97;;;18.46;100.00
35551;BME280;21655;46.056;13.616;2023-06-14T00:20:29;99891.69;;;18.41;100.00
35551;BME280;21655;46.056;13.616;2023-06-14T00:22:56;99891.69;;;18.41;100.00
35551;BME280;21655;46.056;13.616;2023-06-14T00:25:25;99890.84;;;18.41;100.00
35551;BME280;21655;46.056;13.616;2023-06-14T00:27:50;99889.25;;;18.33;100.00
35551;BME280;21655;46.056;13.616;2023-06-14T00:30:16;99889.75;;;18.30;100.00
35551;BME280;21655;46.056;13.616;2023-06-14T00:32:41;99890.34;;;18.32;100.00
35551;BME280;21655;46.056;13.616;2023-06-14T00:35:08;99879.19;;;18.26;100.00
35551;BME280;21655;46.056;13.616;2023-06-14T00:37:34;99877.03;;;18.28;100.00
35551;BME280;21655;46.056;13.616;2023-06-14T00:39:59;99871.00;;;18.24;100.00
35551;BME280;21655;46.056;13.616;2023-06-14T00:42:26;99873.91;;;18.18;100.00
35551;BME280;21655;46.056;13.616;2023-06-14T00:44:52;99874.78;;;18.18;100.00
35551;BME280;21655;46.056;13.616;2023-06-14T00:47:17;99868.69;;;18.21;100.00
35551;BME280;21655;46.056;13.616;2023-06-14T00:49:45;99867.63;;;18.34;100.00
35551;BME280;21655;46.056;13.616;2023-06-14T00:52:11;99864.59;;;18.35;100.00
35551;BME280;21655;46.056;13.616;2023-06-14T00:54:40;99872.66;;;18.32;100.00
35551;BME280;21655;46.056;13.616;2023-06-14T00:57:06;99870.09;;;18.30;100.00
35551;BME280;21655;46.056;13.616;2023-06-14T00:59:32;99870.78;;;18.26;100.00
35551;BME280;21655;46.056;13.616;2023-06-14T01:01:58;99864.56;;;18.24;100.00
35551;BME280;21655;46.056;13.616;2023-06-14T01:04:24;99860.38;;;18.26;100.00
35551;BME280;21655;46.056;13.616;2023-06-14T01:07:10;99855.25;;;18.12;100.00
35551;BME280;21655;46.056;13.616;2023-06-14T01:14:49;99854.38;;;18.11;100.00
35551;BME280;21655;46.056;13.616;2023-06-14T01:17:15;99849.63;;;18.12;100.00
35551;BME280;21655;46.056;13.616;2023-06-14T01:19:42;99843.41;;;18.10;100.00
35551;BME280;21655;46.056;13.616;2023-06-14T01:22:08;99834.75;;;18.11;100.00
35551;BME280;21655;46.056;13.616;2023-06-14T01:24:33;99834.75;;;18.11;100.00
35551;BME280;21655;46.056;13.616;2023-06-14T01:27:00;99843.91;;;18.07;100.00
35551;BME280;21655;46.056;13.616;2023-06-14T01:29:28;99837.31;;;18.01;100.00
35551;BME280;21655;46.056;13.616;2023-06-14T01:31:58;99841.31;;;18.05;100.00
35551;BME280;21655;46.056;13.616;2023-06-14T01:34:25;99839.41;;;18.06;100.00
35551;BME280;21655;46.056;13.616;2023-06-14T01:36:52;99836.94;;;18.09;100.00
35551;BME280;21655;46.056;13.616;2023-06-14T01:39:20;99830.09;;;18.05;100.00
35551;BME280;21655;46.056;13.616;2023-06-14T01:41:47;99839.50;;;17.99;100.00
35551;BME280;21655;46.056;13.616;2023-06-14T01:44:13;99842.91;;;18.01;100.00
35551;BME280;21655;46.056;13.616;2023-06-14T01:46:42;99844.38;;;18.04;100.00
35551;BME280;21655;46.056;13.616;2023-06-14T01:49:07;99838.75;;;18.04;100.00
35551;BME280;21655;46.056;13.616;2023-06-14T01:51:33;99839.84;;;18.03;100.00
35551;BME280;21655;46.056;13.616;2023-06-14T01:53:58;99844.13;;;18.05;100.00
35551;BME280;21655;46.056;13.616;2023-06-14T01:56:25;99839.25;;;18.01;100.00
35551;BME280;21655;46.056;13.616;2023-06-14T01:58:51;99834.50;;;18.01;100.00
35551;BME280;21655;46.056;13.616;2023-06-14T02:01:17;99831.69;;;18.01;100.00
35551;BME280;21655;46.056;13.616;2023-06-14T02:03:44;99828.41;;;18.04;100.00
35551;BME280;21655;46.056;13.616;2023-06-14T02:06:10;99835.59;;;18.00;100.00
35551;BME280;21655;46.056;13.616;2023-06-14T02:08:35;99834.00;;;17.93;100.00
35551;BME280;21655;46.056;13.616;2023-06-14T02:11:01;99836.78;;;17.93;100.00
35551;BME280;21655;46.056;13.616;2023-06-14T02:13:26;99835.69;;;17.94;100.00
35551;BME280;21655;46.056;13.616;2023-06-14T02:15:52;99829.81;;;17.95;100.00
35551;BME280;21655;46.056;13.616;2023-06-14T02:18:20;99845.19;;;17.81;100.00
35551;BME280;21655;46.056;13.616;2023-06-14T02:20:46;99838.78;;;17.63;100.00
35551;BME280;21655;46.056;13.616;2023-06-14T02:23:12;99840.25;;;17.65;100.00
35551;BME280;21655;46.056;13.616;2023-06-14T02:25:38;99835.09;;;17.62;100.00
35551;BME280;21655;46.056;13.616;2023-06-14T02:28:05;99837.59;;;17.41;100.00
35551;BME280;21655;46.056;13.616;2023-06-14T02:30:30;99839.53;;;17.40;100.00
35551;BME280;21655;46.056;13.616;2023-06-14T02:32:56;99835.16;;;17.44;100.00
35551;BME280;21655;46.056;13.616;2023-06-14T02:35:22;99843.47;;;17.33;100.00
35551;BME280;21655;46.056;13.616;2023-06-14T02:37:51;99830.91;;;17.24;100.00
35551;BME280;21655;46.056;13.616;2023-06-14T02:40:18;99833.31;;;17.20;100.00
35551;BME280;21655;46.056;13.616;2023-06-14T02:42:43;99832.63;;;17.07;100.00
35551;BME280;21655;46.056;13.616;2023-06-14T02:45:08;99836.22;;;16.96;100.00
35551;BME280;21655;46.056;13.616;2023-06-14T02:47:34;99829.44;;;17.03;100.00
35551;BME280;21655;46.056;13.616;2023-06-14T02:49:59;99830.03;;;17.41;100.00
35551;BME280;21655;46.056;13.616;2023-06-14T02:52:26;99827.03;;;17.54;100.00
35551;BME280;21655;46.056;13.616;2023-06-14T02:54:51;99833.03;;;17.58;100.00
35551;BME280;21655;46.056;13.616;2023-06-14T02:57:17;99832.94;;;17.64;100.00
35551;BME280;21655;46.056;13.616;2023-06-14T02:59:42;99831.84;;;17.65;100.00
35551;BME280;21655;46.056;13.616;2023-06-14T03:02:08;99831.59;;;17.67;100.00
35551;BME280;21655;46.056;13.616;2023-06-14T03:04:33;99825.97;;;17.67;100.00
35551;BME280;21655;46.056;13.616;2023-06-14T03:07:02;99827.06;;;17.66;100.00
35551;BME280;21655;46.056;13.616;2023-06-14T03:09:34;99825.25;;;17.71;100.00
35551;BME280;21655;46.056;13.616;2023-06-14T03:12:00;99820.53;;;17.72;100.00
35551;BME280;21655;46.056;13.616;2023-06-14T03:14:26;99823.19;;;17.78;100.00
35551;BME280;21655;46.056;13.616;2023-06-14T03:16:51;99835.38;;;17.72;100.00
35551;BME280;21655;46.056;13.616;2023-06-14T03:19:22;99826.94;;;17.61;100.00
35551;BME280;21655;46.056;13.616;2023-06-14T03:21:47;99831.31;;;17.57;100.00
35551;BME280;21655;46.056;13.616;2023-06-14T03:24:13;99831.72;;;17.42;100.00
35551;BME280;21655;46.056;13.616;2023-06-14T03:26:38;99842.47;;;17.45;100.00
35551;BME280;21655;46.056;13.616;2023-06-14T03:29:04;99843.03;;;17.36;100.00
35551;BME280;21655;46.056;13.616;2023-06-14T03:31:29;99843.97;;;17.30;100.00
35551;BME280;21655;46.056;13.616;2023-06-14T03:33:58;99846.16;;;17.28;100.00
35551;BME280;21655;46.056;13.616;2023-06-14T03:36:23;99845.84;;;17.36;100.00
35551;BME280;21655;46.056;13.616;2023-06-14T03:38:49;99836.34;;;17.37;100.00
35551;BME280;21655;46.056;13.616;2023-06-14T03:41:14;99838.03;;;17.20;100.00
35551;BME280;21655;46.056;13.616;2023-06-14T03:43:39;99846.09;;;16.99;100.00
35551;BME280;21655;46.056;13.616;2023-06-14T03:46:05;99847.97;;;16.87;100.00
35551;BME280;21655;46.056;13.616;2023-06-14T03:48:30;99842.91;;;16.77;100.00
35551;BME280;21655;46.056;13.616;2023-06-14T03:50:56;99852.94;;;16.67;100.00
35551;BME280;21655;46.056;13.616;2023-06-14T03:53:22;99848.19;;;16.67;100.00
35551;BME280;21655;46.056;13.616;2023-06-14T03:55:49;99854.47;;;16.63;100.00
35551;BME280;21655;46.056;13.616;2023-06-14T03:58:17;99847.50;;;16.72;100.00
35551;BME280;21655;46.056;13.616;2023-06-14T04:00:43;99865.44;;;16.64;100.00
35551;BME280;21655;46.056;13.616;2023-06-14T04:03:08;99856.97;;;16.71;100.00
35551;BME280;21655;46.056;13.616;2023-06-14T04:05:33;99857.38;;;16.74;100.00
35551;BME280;21655;46.056;13.616;2023-06-14T04:07:59;99860.31;;;16.79;100.00
35551;BME280;21655;46.056;13.616;2023-06-14T04:10:26;99865.25;;;16.84;100.00
35551;BME280;21655;46.056;13.616;2023-06-14T04:12:52;99863.81;;;16.93;100.00
35551;BME280;21655;46.056;13.616;2023-06-14T04:15:17;99864.44;;;16.95;100.00
35551;BME280;21655;46.056;13.616;2023-06-14T04:17:43;99864.84;;;16.98;100.00
35551;BME280;21655;46.056;13.616;2023-06-14T04:20:08;99871.47;;;17.03;100.00
35551;BME280;21655;46.056;13.616;2023-06-14T04:22:35;99866.88;;;17.09;100.00
35551;BME280;21655;46.056;13.616;2023-06-14T04:25:01;99868.03;;;17.19;100.00
35551;BME280;21655;46.056;13.616;2023-06-14T04:27:27;99864.53;;;17.24;100.00
35551;BME280;21655;46.056;13.616;2023-06-14T04:29:54;99875.88;;;17.29;100.00
35551;BME280;21655;46.056;13.616;2023-06-14T04:32:25;99870.88;;;17.31;100.00
35551;BME280;21655;46.056;13.616;2023-06-14T04:34:54;99882.97;;;17.31;100.00
35551;BME280;21655;46.056;13.616;2023-06-14T04:37:20;99873.88;;;17.36;100.00
35551;BME280;21655;46.056;13.616;2023-06-14T04:39:47;99880.34;;;17.36;100.00
35551;BME280;21655;46.056;13.616;2023-06-14T04:42:12;99887.19;;;17.40;100.00
35551;BME280;21655;46.056;13.616;2023-06-14T04:44:41;99884.91;;;17.49;100.00
35551;BME280;21655;46.056;13.616;2023-06-14T04:47:06;99875.84;;;17.65;100.00
35551;BME280;21655;46.056;13.616;2023-06-14T04:49:32;99879.91;;;18.21;100.00
35551;BME280;21655;46.056;13.616;2023-06-14T04:51:59;99873.16;;;18.75;100.00
35551;BME280;21655;46.056;13.616;2023-06-14T04:54:26;99873.84;;;19.16;100.00
35551;BME280;21655;46.056;13.616;2023-06-14T04:56:52;99872.06;;;19.61;100.00
35551;BME280;21655;46.056;13.616;2023-06-14T04:59:20;99852.53;;;19.99;100.00
35551;BME280;21655;46.056;13.616;2023-06-14T05:01:48;99856.78;;;20.29;100.00
35551;BME280;21655;46.056;13.616;2023-06-14T05:04:15;99852.53;;;20.60;100.00
35551;BME280;21655;46.056;13.616;2023-06-14T05:06:42;99849.16;;;20.96;100.00
35551;BME280;21655;46.056;13.616;2023-06-14T05:09:13;99845.19;;;21.34;100.00
35551;BME280;21655;46.056;13.616;2023-06-14T05:11:38;99856.16;;;21.74;100.00
35551;BME280;21655;46.056;13.616;2023-06-14T05:14:04;99850.41;;;21.90;100.00
35551;BME280;21655;46.056;13.616;2023-06-14T05:16:29;99859.53;;;21.97;100.00
35551;BME280;21655;46.056;13.616;2023-06-14T05:18:55;99858.72;;;22.28;100.00
35551;BME280;21655;46.056;13.616;2023-06-14T05:21:20;99858.94;;;22.48;100.00
35551;BME280;21655;46.056;13.616;2023-06-14T05:23:46;99857.91;;;22.59;100.00
35551;BME280;21655;46.056;13.616;2023-06-14T05:26:12;99866.06;;;22.92;100.00
35551;BME280;21655;46.056;13.616;2023-06-14T05:28:37;99861.94;;;22.73;100.00
35551;BME280;21655;46.056;13.616;2023-06-14T05:31:03;99864.16;;;22.08;100.00
35551;BME280;21655;46.056;13.616;2023-06-14T05:33:28;99865.41;;;21.69;100.00
35551;BME280;21655;46.056;13.616;2023-06-14T05:35:54;99870.03;;;21.59;100.00
35551;BME280;21655;46.056;13.616;2023-06-14T05:38:20;99867.31;;;21.42;100.00
35551;BME280;21655;46.056;13.616;2023-06-14T05:40:45;99871.56;;;21.45;100.00
35551;BME280;21655;46.056;13.616;2023-06-14T05:43:11;99877.09;;;21.35;100.00
35551;BME280;21655;46.056;13.616;2023-06-14T05:45:36;99873.41;;;21.34;100.00
35551;BME280;21655;46.056;13.616;2023-06-14T05:48:02;99874.75;;;21.32;100.00
35551;BME280;21655;46.056;13.616;2023-06-14T05:50:27;99876.88;;;21.20;100.00
35551;BME280;21655;46.056;13.616;2023-06-14T05:52:53;99888.34;;;21.13;100.00
35551;BME280;21655;46.056;13.616;2023-06-14T05:55:18;99876.97;;;21.08;100.00
35551;BME280;21655;46.056;13.616;2023-06-14T05:57:45;99885.69;;;21.07;100.00
35551;BME280;21655;46.056;13.616;2023-06-14T06:00:10;99887.94;;;21.05;100.00
35551;BME280;21655;46.056;13.616;2023-06-14T06:02:37;99891.34;;;21.07;100.00
35551;BME280;21655;46.056;13.616;2023-06-14T06:05:02;99892.50;;;21.11;100.00
35551;BME280;21655;46.056;13.616;2023-06-14T06:07:28;99894.81;;;21.14;100.00
35551;BME280;21655;46.056;13.616;2023-06-14T06:09:53;99889.84;;;21.21;100.00
35551;BME280;21655;46.056;13.616;2023-06-14T06:12:19;99897.38;;;21.15;100.00
35551;BME280;21655;46.056;13.616;2023-06-14T06:14:44;99895.22;;;21.22;100.00
35551;BME280;21655;46.056;13.616;2023-06-14T06:17:10;99898.72;;;21.29;100.00
35551;BME280;21655;46.056;13.616;2023-06-14T06:19:35;99897.13;;;21.38;100.00
35551;BME280;21655;46.056;13.616;2023-06-14T06:22:02;99907.84;;;21.58;100.00
35551;BME280;21655;46.056;13.616;2023-06-14T06:24:30;99904.72;;;21.76;100.00
35551;BME280;21655;46.056;13.616;2023-06-14T06:26:55;99907.22;;;22.20;100.00
35551;BME280;21655;46.056;13.616;2023-06-14T06:29:20;99917.84;;;22.35;100.00
35551;BME280;21655;46.056;13.616;2023-06-14T06:31:46;99910.69;;;22.54;100.00
35551;BME280;21655;46.056;13.616;2023-06-14T06:34:11;99921.13;;;22.53;100.00
35551;BME280;21655;46.056;13.616;2023-06-14T06:36:37;99913.72;;;22.42;100.00
35551;BME280;21655;46.056;13.616;2023-06-14T06:39:02;99923.69;;;22.50;100.00
35551;BME280;21655;46.056;13.616;2023-06-14T06:41:34;99926.50;;;22.50;100.00
35551;BME280;21655;46.056;13.616;2023-06-14T06:44:01;99924.88;;;22.32;100.00
35551;BME280;21655;46.056;13.616;2023-06-14T06:46:27;99929.50;;;22.17;100.00
35551;BME280;21655;46.056;13.616;2023-06-14T06:48:52;99919.72;;;22.24;100.00
35551;BME280;21655;46.056;13.616;2023-06-14T06:51:18;99922.63;;;22.34;100.00
35551;BME280;21655;46.056;13.616;2023-06-14T06:53:52;99924.69;;;22.70;100.00
35551;BME280;21655;46.056;13.616;2023-06-14T06:56:18;99928.81;;;23.20;100.00
35551;BME280;21655;46.056;13.616;2023-06-14T06:58:44;99934.25;;;23.27;100.00
35551;BME280;21655;46.056;13.616;2023-06-14T07:01:10;99936.91;;;23.07;100.00
35551;BME280;21655;46.056;13.616;2023-06-14T07:03:35;99939.47;;;22.77;100.00
35551;BME280;21655;46.056;13.616;2023-06-14T07:06:01;99933.31;;;22.54;100.00
35551;BME280;21655;46.056;13.616;2023-06-14T07:08:26;99942.84;;;22.48;100.00
35551;BME280;21655;46.056;13.616;2023-06-14T07:10:52;99931.41;;;22.38;100.00
35551;BME280;21655;46.056;13.616;2023-06-14T07:13:17;99944.09;;;22.35;100.00
35551;BME280;21655;46.056;13.616;2023-06-14T07:15:43;99931.72;;;22.15;100.00
35551;BME280;21655;46.056;13.616;2023-06-14T07:18:08;99942.19;;;22.14;100.00
35551;BME280;21655;46.056;13.616;2023-06-14T07:20:34;99941.59;;;22.12;100.00
35551;BME280;21655;46.056;13.616;2023-06-14T07:22:59;99951.00;;;22.18;100.00
35551;BME280;21655;46.056;13.616;2023-06-14T07:25:25;99950.28;;;22.32;100.00
35551;BME280;21655;46.056;13.616;2023-06-14T07:27:51;99941.56;;;22.34;100.00
35551;BME280;21655;46.056;13.616;2023-06-14T07:30:16;99945.91;;;22.41;100.00
35551;BME280;21655;46.056;13.616;2023-06-14T07:32:42;99948.59;;;22.58;100.00
35551;BME280;21655;46.056;13.616;2023-06-14T07:35:08;99946.53;;;22.80;100.00
35551;BME280;21655;46.056;13.616;2023-06-14T07:37:33;99953.53;;;22.99;100.00
35551;BME280;21655;46.056;13.616;2023-06-14T07:39:59;99947.72;;;23.15;100.00
35551;BME280;21655;46.056;13.616;2023-06-14T07:42:24;99938.63;;;23.49;100.00
35551;BME280;21655;46.056;13.616;2023-06-14T07:44:50;99942.97;;;23.72;100.00
35551;BME280;21655;46.056;13.616;2023-06-14T07:47:17;99943.13;;;24.02;100.00
35551;BME280;21655;46.056;13.616;2023-06-14T07:49:42;99941.50;;;24.11;100.00
35551;BME280;21655;46.056;13.616;2023-06-14T07:52:08;99930.41;;;24.09;100.00
35551;BME280;21655;46.056;13.616;2023-06-14T07:54:33;99934.69;;;24.07;100.00
35551;BME280;21655;46.056;13.616;2023-06-14T07:56:59;99941.50;;;24.11;100.00
35551;BME280;21655;46.056;13.616;2023-06-14T07:59:26;99943.19;;;24.07;100.00
35551;BME280;21655;46.056;13.616;2023-06-14T08:01:51;99938.03;;;23.99;100.00
35551;BME280;21655;46.056;13.616;2023-06-14T08:04:17;99944.25;;;23.91;100.00
35551;BME280;21655;46.056;13.616;2023-06-14T08:06:42;99940.00;;;23.93;100.00
35551;BME280;21655;46.056;13.616;2023-06-14T08:09:11;99942.81;;;23.88;100.00
35551;BME280;21655;46.056;13.616;2023-06-14T08:11:37;99953.91;;;24.00;100.00
35551;BME280;21655;46.056;13.616;2023-06-14T08:14:03;99954.28;;;24.23;100.00
35551;BME280;21655;46.056;13.616;2023-06-14T08:16:28;99955.09;;;24.14;100.00
35551;BME280;21655;46.056;13.616;2023-06-14T08:18:55;99945.47;;;24.10;100.00
35551;BME280;21655;46.056;13.616;2023-06-14T08:21:20;99946.59;;;24.19;100.00
35551;BME280;21655;46.056;13.616;2023-06-14T08:23:46;99940.72;;;24.45;100.00
35551;BME280;21655;46.056;13.616;2023-06-14T08:26:11;99943.63;;;24.90;100.00
35551;BME280;21655;46.056;13.616;2023-06-14T08:28:37;99941.69;;;25.25;100.00
35551;BME280;21655;46.056;13.616;2023-06-14T08:31:02;99940.13;;;25.73;100.00
35551;BME280;21655;46.056;13.616;2023-06-14T08:33:27;99940.28;;;26.21;100.00
35551;BME280;21655;46.056;13.616;2023-06-14T08:35:53;99928.06;;;26.64;100.00
35551;BME280;21655;46.056;13.616;2023-06-14T08:38:19;99941.53;;;27.54;100.00
35551;BME280;21655;46.056;13.616;2023-06-14T08:40:47;99930.28;;;28.14;100.00
35551;BME280;21655;46.056;13.616;2023-06-14T08:43:13;99938.31;;;28.91;88.89
35551;BME280;21655;46.056;13.616;2023-06-14T08:45:38;99936.63;;;28.72;86.92
35551;BME280;21655;46.056;13.616;2023-06-14T08:48:08;99933.84;;;29.04;85.85
35551;BME280;21655;46.056;13.616;2023-06-14T08:50:36;99936.13;;;29.20;81.62
35551;BME280;21655;46.056;13.616;2023-06-14T08:53:05;99933.09;;;29.30;82.47
35551;BME280;21655;46.056;13.616;2023-06-14T08:55:36;99935.94;;;28.98;87.85
35551;BME280;21655;46.056;13.616;2023-06-14T08:58:03;99940.84;;;28.14;91.45
35551;BME280;21655;46.056;13.616;2023-06-14T09:00:29;99944.38;;;27.82;96.55
35551;BME280;21655;46.056;13.616;2023-06-14T09:02:55;99940.81;;;27.67;99.43
35551;BME280;21655;46.056;13.616;2023-06-14T09:05:27;99942.19;;;27.74;100.00
35551;BME280;21655;46.056;13.616;2023-06-14T09:07:54;99936.41;;;28.26;98.81
35551;BME280;21655;46.056;13.616;2023-06-14T09:10:27;99941.09;;;28.41;91.94
35551;BME280;21655;46.056;13.616;2023-06-14T09:12:52;99948.66;;;27.85;96.31
35551;BME280;21655;46.056;13.616;2023-06-14T09:15:18;99949.53;;;27.80;100.00
35551;BME280;21655;46.056;13.616;2023-06-14T09:17:43;99946.09;;;27.55;100.00
35551;BME280;21655;46.056;13.616;2023-06-14T09:20:09;99937.09;;;27.09;100.00
35551;BME280;21655;46.056;13.616;2023-06-14T09:22:39;99944.38;;;26.92;100.00
35551;BME280;21655;46.056;13.616;2023-06-14T09:25:05;99950.13;;;26.82;100.00
35551;BME280;21655;46.056;13.616;2023-06-14T09:27:32;99945.78;;;26.51;100.00
35551;BME280;21655;46.056;13.616;2023-06-14T09:29:58;99945.22;;;26.49;100.00
35551;BME280;21655;46.056;13.616;2023-06-14T09:32:23;99944.13;;;26.40;100.00
35551;BME280;21655;46.056;13.616;2023-06-14T09:34:49;99950.34;;;26.52;100.00
35551;BME280;21655;46.056;13.616;2023-06-14T09:37:31;99956.41;;;26.79;100.00
35551;BME280;21655;46.056;13.616;2023-06-14T09:39:57;99954.09;;;26.86;100.00
35551;BME280;21655;46.056;13.616;2023-06-14T09:42:23;99952.63;;;26.55;100.00
35551;BME280;21655;46.056;13.616;2023-06-14T09:44:52;99952.91;;;26.44;100.00
35551;BME280;21655;46.056;13.616;2023-06-14T09:47:18;99964.72;;;26.22;100.00
35551;BME280;21655;46.056;13.616;2023-06-14T09:49:44;99951.47;;;25.93;100.00
35551;BME280;21655;46.056;13.616;2023-06-14T09:52:19;99957.22;;;25.63;100.00
35551;BME280;21655;46.056;13.616;2023-06-14T09:54:46;99954.97;;;25.55;100.00
35551;BME280;21655;46.056;13.616;2023-06-14T09:57:13;99948.00;;;26.06;100.00
35551;BME280;21655;46.056;13.616;2023-06-14T09:59:43;99948.81;;;26.16;100.00
35551;BME280;21655;46.056;13.616;2023-06-14T10:02:21;99950.22;;;26.72;100.00
35551;BME280;21655;46.056;13.616;2023-06-14T10:04:56;99949.84;;;27.50;100.00
35551;BME280;21655;46.056;13.616;2023-06-14T10:07:26;99954.91;;;27.82;100.00
35551;BME280;21655;46.056;13.616;2023-06-14T10:09:53;99949.59;;;27.47;100.00
35551;BME280;21655;46.056;13.616;2023-06-14T10:12:18;99959.00;;;27.14;100.00
35551;BME280;21655;46.056;13.616;2023-06-14T10:14:51;99956.88;;;26.53;100.00
35551;BME280;21655;46.056;13.616;2023-06-14T10:17:27;99958.84;;;25.94;100.00
35551;BME280;21655;46.056;13.616;2023-06-14T10:22:33;99949.47;;;25.93;100.00
35551;BME280;21655;46.056;13.616;2023-06-14T10:25:01;99948.34;;;25.94;100.00
35551;BME280;21655;46.056;13.616;2023-06-14T10:27:27;99953.09;;;26.09;100.00
35551;BME280;21655;46.056;13.616;2023-06-14T10:32:18;99944.78;;;27.14;100.00
35551;BME280;21655;46.056;13.616;2023-06-14T10:34:44;99940.81;;;27.43;100.00
35551;BME280;21655;46.056;13.616;2023-06-14T10:37:13;99955.69;;;27.35;100.00
35551;BME280;21655;46.056;13.616;2023-06-14T10:39:41;99948.13;;;27.49;100.00
35551;BME280;21655;46.056;13.616;2023-06-14T10:42:07;99953.31;;;27.42;100.00
35551;BME280;21655;46.056;13.616;2023-06-14T10:44:37;99944.75;;;27.47;100.00
35551;BME280;21655;46.056;13.616;2023-06-14T10:47:06;99942.25;;;27.93;100.00
35551;BME280;21655;46.056;13.616;2023-06-14T10:49:42;99927.97;;;28.16;100.00
35551;BME280;21655;46.056;13.616;2023-06-14T10:52:12;99929.53;;;27.85;98.23
35551;BME280;21655;46.056;13.616;2023-06-14T10:55:01;99929.50;;;28.32;99.27
35551;BME280;21655;46.056;13.616;2023-06-14T10:57:29;99924.41;;;28.48;95.84
35551;BME280;21655;46.056;13.616;2023-06-14T10:59:57;99925.19;;;28.53;100.00
35551;BME280;21655;46.056;13.616;2023-06-14T11:05:27;99934.25;;;29.29;88.42
35551;BME280;21655;46.056;13.616;2023-06-14T11:10:41;99929.66;;;28.41;91.92
35551;BME280;21655;46.056;13.616;2023-06-14T11:13:08;99920.59;;;27.92;96.60
35551;BME280;21655;46.056;13.616;2023-06-14T11:15:38;99922.38;;;27.88;97.85
35551;BME280;21655;46.056;13.616;2023-06-14T11:18:08;99913.59;;;28.26;100.00
35551;BME280;21655;46.056;13.616;2023-06-14T11:20:36;99915.31;;;28.46;93.11
35551;BME280;21655;46.056;13.616;2023-06-14T11:23:03;99908.59;;;28.55;91.52
35551;BME280;21655;46.056;13.616;2023-06-14T11:25:29;99899.66;;;28.99;92.74
35551;BME280;21655;46.056;13.616;2023-06-14T11:27:55;99892.78;;;28.63;88.57
35551;BME280;21655;46.056;13.616;2023-06-14T11:30:21;99903.84;;;28.51;88.45
35551;BME280;21655;46.056;13.616;2023-06-14T11:32:51;99898.59;;;28.58;92.63
35551;BME280;21655;46.056;13.616;2023-06-14T11:35:18;99897.88;;;29.03;86.13
35551;BME280;21655;46.056;13.616;2023-06-14T11:37:44;99887.84;;;28.50;83.15
35551;BME280;21655;46.056;13.616;2023-06-14T11:40:11;99880.13;;;28.13;89.59
35551;BME280;21655;46.056;13.616;2023-06-14T11:42:39;99895.97;;;27.54;98.03
35551;BME280;21655;46.056;13.616;2023-06-14T11:45:09;99881.75;;;27.96;98.61
35551;BME280;21655;46.056;13.616;2023-06-14T11:47:35;99874.00;;;28.43;88.76
35551;BME280;21655;46.056;13.616;2023-06-14T11:50:01;99872.84;;;28.44;93.04
35551;BME280;21655;46.056;13.616;2023-06-14T11:52:27;99865.13;;;28.45;93.77
35551;BME280;21655;46.056;13.616;2023-06-14T11:54:53;99867.03;;;28.31;90.63
35551;BME280;21655;46.056;13.616;2023-06-14T11:57:19;99868.50;;;28.28;94.64
35551;BME280;21655;46.056;13.616;2023-06-14T11:59:45;99863.47;;;28.20;91.26
35551;BME280;21655;46.056;13.616;2023-06-14T12:02:14;99864.41;;;28.71;95.65
35551;BME280;21655;46.056;13.616;2023-06-14T12:04:43;99858.06;;;28.93;87.63
35551;BME280;21655;46.056;13.616;2023-06-14T12:07:13;99853.78;;;29.09;89.38
35551;BME280;21655;46.056;13.616;2023-06-14T12:12:28;99846.16;;;28.54;84.47
35551;BME280;21655;46.056;13.616;2023-06-14T12:14:57;99845.53;;;28.57;86.73
35551;BME280;21655;46.056;13.616;2023-06-14T12:17:23;99843.72;;;28.79;84.67
35551;BME280;21655;46.056;13.616;2023-06-14T12:19:49;99839.97;;;29.29;83.89
35551;BME280;21655;46.056;13.616;2023-06-14T12:22:16;99832.56;;;29.41;83.35
35551;BME280;21655;46.056;13.616;2023-06-14T12:24:45;99819.69;;;29.57;79.83
35551;BME280;21655;46.056;13.616;2023-06-14T12:27:11;99819.78;;;29.93;75.78
35551;BME280;21655;46.056;13.616;2023-06-14T12:29:41;99820.50;;;29.85;78.08
35551;BME280;21655;46.056;13.616;2023-06-14T12:32:11;99813.94;;;29.98;80.33
35551;BME280;21655;46.056;13.616;2023-06-14T12:34:36;99817.94;;;29.29;77.56
35551;BME280;21655;46.056;13.616;2023-06-14T12:37:02;99810.09;;;29.08;81.95
35551;BME280;21655;46.056;13.616;2023-06-14T12:39:29;99821.06;;;29.01;88.30
35551;BME280;21655;46.056;13.616;2023-06-14T12:41:56;99820.94;;;28.74;81.69
35551;BME280;21655;46.056;13.616;2023-06-14T12:44:22;99815.66;;;28.68;87.55
35551;BME280;21655;46.056;13.616;2023-06-14T12:46:47;99812.09;;;28.57;83.84
35551;BME280;21655;46.056;13.616;2023-06-14T12:49:13;99808.94;;;29.23;87.47
35551;BME280;21655;46.056;13.616;2023-06-14T12:51:39;99808.47;;;29.47;80.11
35551;BME280;21655;46.056;13.616;2023-06-14T12:54:05;99807.81;;;29.77;87.24
35551;BME280;21655;46.056;13.616;2023-06-14T12:56:31;99809.31;;;29.75;72.36
35551;BME280;21655;46.056;13.616;2023-06-14T12:58:58;99802.31;;;29.54;81.19